Panama City Beach, Florida
Current Conditions -  °F | °C
As of 6:53 AM on Tuesday 21 Oct 2014 (Local Time) from KECP Reporting Station
Clear Clear  
Wind Chill: 54°   Ceiling: Unl
Heat Index: 54°   Visibility: 8mi
Dew Point: 50°   Wind: 3mph
Humidity: 86%   Direction: 320°NW
Pressure: 30"   Gusts: NA
Location:  30.21°N, 85.85°W
Report Text: KECP 211153Z 32003KT 8SM CLR 12/10 A3000 RMK AO2 SLP169 T01220100 10144 20122 53009
Loading
Personal Weather Stations






























Interactive Weather Map
Tropical Storm Tracking
New forecast layout! Learn more

10-Day Weather Forecast

Advertisements
Track Severe Weather on mobile